sensor_id;sensor_type;location;lat;lon;timestamp;temperature;humidity
7204;DHT22;3643;52.460;13.322;2023-02-12T00:01:07;6.40;99.90
7204;DHT22;3643;52.460;13.322;2023-02-12T00:03:38;6.30;99.90
7204;DHT22;3643;52.460;13.322;2023-02-12T00:06:08;6.30;99.90
7204;DHT22;3643;52.460;13.322;2023-02-12T00:08:38;6.40;99.90
7204;DHT22;3643;52.460;13.322;2023-02-12T00:11:09;6.30;99.90
7204;DHT22;3643;52.460;13.322;2023-02-12T00:13:38;6.30;99.90
7204;DHT22;3643;52.460;13.322;2023-02-12T00:16:09;6.30;99.90
7204;DHT22;3643;52.460;13.322;2023-02-12T00:18:40;6.30;99.90
7204;DHT22;3643;52.460;13.322;2023-02-12T00:21:08;6.30;99.90
7204;DHT22;3643;52.460;13.322;2023-02-12T00:23:38;6.30;99.90
7204;DHT22;3643;52.460;13.322;2023-02-12T00:26:08;6.30;99.90
7204;DHT22;3643;52.460;13.322;2023-02-12T00:28:37;6.20;99.90
7204;DHT22;3643;52.460;13.322;2023-02-12T00:31:07;6.20;99.90
7204;DHT22;3643;52.460;13.322;2023-02-12T00:33:36;6.20;99.90
7204;DHT22;3643;52.460;13.322;2023-02-12T00:36:08;6.20;99.90
7204;DHT22;3643;52.460;13.322;2023-02-12T00:38:37;6.20;99.90
7204;DHT22;3643;52.460;13.322;2023-02-12T00:41:06;6.20;99.90
7204;DHT22;3643;52.460;13.322;2023-02-12T00:43:34;6.20;99.90
7204;DHT22;3643;52.460;13.322;2023-02-12T00:46:03;6.20;99.90
7204;DHT22;3643;52.460;13.322;2023-02-12T00:48:33;6.20;99.90
7204;DHT22;3643;52.460;13.322;2023-02-12T00:51:01;6.20;99.90
7204;DHT22;3643;52.460;13.322;2023-02-12T00:53:32;6.20;99.90
7204;DHT22;3643;52.460;13.322;2023-02-12T00:56:01;6.20;99.90
7204;DHT22;3643;52.460;13.322;2023-02-12T00:58:29;6.20;99.90
7204;DHT22;3643;52.460;13.322;2023-02-12T01:00:58;6.20;99.90
7204;DHT22;3643;52.460;13.322;2023-02-12T01:03:26;6.20;99.90
7204;DHT22;3643;52.460;13.322;2023-02-12T01:05:54;6.20;99.90
7204;DHT22;3643;52.460;13.322;2023-02-12T01:08:24;6.20;99.90
7204;DHT22;3643;52.460;13.322;2023-02-12T01:10:59;6.20;99.90
7204;DHT22;3643;52.460;13.322;2023-02-12T01:13:29;6.20;99.90
7204;DHT22;3643;52.460;13.322;2023-02-12T01:16:02;6.30;99.90
7204;DHT22;3643;52.460;13.322;2023-02-12T01:18:32;6.10;99.90
7204;DHT22;3643;52.460;13.322;2023-02-12T01:21:01;6.10;99.90
7204;DHT22;3643;52.460;13.322;2023-02-12T01:23:29;6.10;99.90
7204;DHT22;3643;52.460;13.322;2023-02-12T01:25:59;6.10;99.90
7204;DHT22;3643;52.460;13.322;2023-02-12T01:28:28;6.10;99.90
7204;DHT22;3643;52.460;13.322;2023-02-12T01:30:56;6.10;99.90
7204;DHT22;3643;52.460;13.322;2023-02-12T01:33:25;6.10;99.90
7204;DHT22;3643;52.460;13.322;2023-02-12T01:35:53;6.10;99.90
7204;DHT22;3643;52.460;13.322;2023-02-12T01:38:22;6.10;99.90
7204;DHT22;3643;52.460;13.322;2023-02-12T01:40:50;6.10;99.90
7204;DHT22;3643;52.460;13.322;2023-02-12T01:43:20;6.10;99.90
7204;DHT22;3643;52.460;13.322;2023-02-12T01:45:51;6.10;99.90
7204;DHT22;3643;52.460;13.322;2023-02-12T01:48:24;6.10;99.90
7204;DHT22;3643;52.460;13.322;2023-02-12T01:50:55;6.10;99.90
7204;DHT22;3643;52.460;13.322;2023-02-12T01:53:30;6.10;99.90
7204;DHT22;3643;52.460;13.322;2023-02-12T01:56:01;6.10;99.90
7204;DHT22;3643;52.460;13.322;2023-02-12T01:58:36;6.10;99.90
7204;DHT22;3643;52.460;13.322;2023-02-12T02:01:09;6.10;99.90
7204;DHT22;3643;52.460;13.322;2023-02-12T02:03:38;6.10;99.90
7204;DHT22;3643;52.460;13.322;2023-02-12T02:06:10;6.10;99.90
7204;DHT22;3643;52.460;13.322;2023-02-12T02:08:39;6.20;99.90
7204;DHT22;3643;52.460;13.322;2023-02-12T02:11:08;6.10;99.90
7204;DHT22;3643;52.460;13.322;2023-02-12T02:13:52;6.20;99.90
7204;DHT22;3643;52.460;13.322;2023-02-12T02:16:42;6.10;99.90
7204;DHT22;3643;52.460;13.322;2023-02-12T02:19:23;6.10;99.90
7204;DHT22;3643;52.460;13.322;2023-02-12T02:22:16;6.10;99.90
7204;DHT22;3643;52.460;13.322;2023-02-12T02:25:26;6.10;99.90
7204;DHT22;3643;52.460;13.322;2023-02-12T02:28:15;6.10;99.90
7204;DHT22;3643;52.460;13.322;2023-02-12T02:30:52;6.10;99.90
7204;DHT22;3643;52.460;13.322;2023-02-12T02:33:31;6.10;99.90
7204;DHT22;3643;52.460;13.322;2023-02-12T02:36:18;6.10;99.90
7204;DHT22;3643;52.460;13.322;2023-02-12T02:38:55;6.10;99.90
7204;DHT22;3643;52.460;13.322;2023-02-12T02:41:28;6.00;99.90
7204;DHT22;3643;52.460;13.322;2023-02-12T02:44:02;6.00;99.90
7204;DHT22;3643;52.460;13.322;2023-02-12T02:46:37;6.00;99.90
7204;DHT22;3643;52.460;13.322;2023-02-12T02:49:11;6.00;99.90
7204;DHT22;3643;52.460;13.322;2023-02-12T02:51:46;6.00;99.90
7204;DHT22;3643;52.460;13.322;2023-02-12T02:54:20;6.00;99.90
7204;DHT22;3643;52.460;13.322;2023-02-12T02:56:56;6.00;99.90
7204;DHT22;3643;52.460;13.322;2023-02-12T02:59:28;6.00;99.90
7204;DHT22;3643;52.460;13.322;2023-02-12T03:02:05;6.00;99.90
7204;DHT22;3643;52.460;13.322;2023-02-12T03:04:39;6.00;99.90
7204;DHT22;3643;52.460;13.322;2023-02-12T03:07:12;6.00;99.90
7204;DHT22;3643;52.460;13.322;2023-02-12T03:09:45;6.00;99.90
7204;DHT22;3643;52.460;13.322;2023-02-12T03:12:19;6.00;99.90
7204;DHT22;3643;52.460;13.322;2023-02-12T03:14:52;6.00;99.90
7204;DHT22;3643;52.460;13.322;2023-02-12T03:17:30;6.10;99.90
7204;DHT22;3643;52.460;13.322;2023-02-12T03:20:03;6.00;99.90
7204;DHT22;3643;52.460;13.322;2023-02-12T03:22:35;6.00;99.90
7204;DHT22;3643;52.460;13.322;2023-02-12T03:25:10;6.00;99.90
7204;DHT22;3643;52.460;13.322;2023-02-12T03:27:43;6.00;99.90
7204;DHT22;3643;52.460;13.322;2023-02-12T03:30:13;6.00;99.90
7204;DHT22;3643;52.460;13.322;2023-02-12T03:32:51;6.00;99.90
7204;DHT22;3643;52.460;13.322;2023-02-12T03:35:24;6.00;99.90
7204;DHT22;3643;52.460;13.322;2023-02-12T03:38:09;6.00;99.90
7204;DHT22;3643;52.460;13.322;2023-02-12T03:40:46;6.00;99.90
7204;DHT22;3643;52.460;13.322;2023-02-12T03:43:23;6.00;99.90
7204;DHT22;3643;52.460;13.322;2023-02-12T03:45:55;6.00;99.90
7204;DHT22;3643;52.460;13.322;2023-02-12T03:48:30;6.00;99.90
7204;DHT22;3643;52.460;13.322;2023-02-12T03:51:04;6.00;99.90
7204;DHT22;3643;52.460;13.322;2023-02-12T03:53:36;6.00;99.90
7204;DHT22;3643;52.460;13.322;2023-02-12T03:56:09;6.00;99.90
7204;DHT22;3643;52.460;13.322;2023-02-12T03:58:40;6.00;99.90
7204;DHT22;3643;52.460;13.322;2023-02-12T04:01:10;6.00;99.90
7204;DHT22;3643;52.460;13.322;2023-02-12T04:03:41;6.00;99.90
7204;DHT22;3643;52.460;13.322;2023-02-12T04:06:20;6.00;99.90
7204;DHT22;3643;52.460;13.322;2023-02-12T04:08:49;6.00;99.90
7204;DHT22;3643;52.460;13.322;2023-02-12T04:11:26;6.00;99.90
7204;DHT22;3643;52.460;13.322;2023-02-12T04:14:12;6.00;99.90
7204;DHT22;3643;52.460;13.322;2023-02-12T04:16:47;6.00;99.90
7204;DHT22;3643;52.460;13.322;2023-02-12T04:19:29;6.00;99.90
7204;DHT22;3643;52.460;13.322;2023-02-12T04:22:13;6.00;99.90
7204;DHT22;3643;52.460;13.322;2023-02-12T04:24:49;6.00;99.90
7204;DHT22;3643;52.460;13.322;2023-02-12T04:27:25;6.00;99.90
7204;DHT22;3643;52.460;13.322;2023-02-12T04:29:56;5.90;99.90
7204;DHT22;3643;52.460;13.322;2023-02-12T04:32:33;6.00;99.90
7204;DHT22;3643;52.460;13.322;2023-02-12T04:35:11;6.00;99.90
7204;DHT22;3643;52.460;13.322;2023-02-12T04:37:45;5.90;99.90
7204;DHT22;3643;52.460;13.322;2023-02-12T04:40:17;5.90;99.90
7204;DHT22;3643;52.460;13.322;2023-02-12T04:42:48;5.90;99.90
7204;DHT22;3643;52.460;13.322;2023-02-12T04:45:20;5.90;99.90
7204;DHT22;3643;52.460;13.322;2023-02-12T04:47:49;5.90;99.90
7204;DHT22;3643;52.460;13.322;2023-02-12T04:50:20;5.90;99.90
7204;DHT22;3643;52.460;13.322;2023-02-12T04:52:48;5.90;99.90
7204;DHT22;3643;52.460;13.322;2023-02-12T04:55:17;5.90;99.90
7204;DHT22;3643;52.460;13.322;2023-02-12T04:57:46;5.90;99.90
7204;DHT22;3643;52.460;13.322;2023-02-12T05:00:15;5.90;99.90
7204;DHT22;3643;52.460;13.322;2023-02-12T05:02:44;5.90;99.90
7204;DHT22;3643;52.460;13.322;2023-02-12T05:05:12;5.90;99.90
7204;DHT22;3643;52.460;13.322;2023-02-12T05:07:41;5.90;99.90
7204;DHT22;3643;52.460;13.322;2023-02-12T05:10:10;5.80;99.90
7204;DHT22;3643;52.460;13.322;2023-02-12T05:12:38;5.90;99.90
7204;DHT22;3643;52.460;13.322;2023-02-12T05:15:06;5.90;99.90
7204;DHT22;3643;52.460;13.322;2023-02-12T05:17:35;5.90;99.90
7204;DHT22;3643;52.460;13.322;2023-02-12T05:20:03;5.80;99.90
7204;DHT22;3643;52.460;13.322;2023-02-12T05:22:32;5.90;99.90
7204;DHT22;3643;52.460;13.322;2023-02-12T05:25:01;5.90;99.90
7204;DHT22;3643;52.460;13.322;2023-02-12T05:27:29;5.90;99.90
7204;DHT22;3643;52.460;13.322;2023-02-12T05:29:57;5.90;99.90
7204;DHT22;3643;52.460;13.322;2023-02-12T05:32:25;5.90;99.90
7204;DHT22;3643;52.460;13.322;2023-02-12T05:34:53;5.80;99.90
7204;DHT22;3643;52.460;13.322;2023-02-12T05:37:22;5.80;99.90
7204;DHT22;3643;52.460;13.322;2023-02-12T05:39:50;5.80;99.90
7204;DHT22;3643;52.460;13.322;2023-02-12T05:42:19;5.80;99.90
7204;DHT22;3643;52.460;13.322;2023-02-12T05:44:47;5.80;99.90
7204;DHT22;3643;52.460;13.322;2023-02-12T05:47:15;5.80;99.90
7204;DHT22;3643;52.460;13.322;2023-02-12T05:49:43;5.80;99.90
7204;DHT22;3643;52.460;13.322;2023-02-12T05:52:11;5.80;99.90
7204;DHT22;3643;52.460;13.322;2023-02-12T05:54:39;5.80;99.90
7204;DHT22;3643;52.460;13.322;2023-02-12T05:57:07;5.80;99.90
7204;DHT22;3643;52.460;13.322;2023-02-12T05:59:37;5.80;99.90
7204;DHT22;3643;52.460;13.322;2023-02-12T06:02:06;5.80;99.90
7204;DHT22;3643;52.460;13.322;2023-02-12T06:04:34;5.80;99.90
7204;DHT22;3643;52.460;13.322;2023-02-12T06:07:02;5.80;99.90
7204;DHT22;3643;52.460;13.322;2023-02-12T06:09:30;5.80;99.90
7204;DHT22;3643;52.460;13.322;2023-02-12T06:11:58;5.80;99.90
7204;DHT22;3643;52.460;13.322;2023-02-12T06:14:26;5.80;99.90
7204;DHT22;3643;52.460;13.322;2023-02-12T06:16:59;5.80;99.90
7204;DHT22;3643;52.460;13.322;2023-02-12T06:19:27;5.80;99.90
7204;DHT22;3643;52.460;13.322;2023-02-12T06:21:55;5.80;99.90
7204;DHT22;3643;52.460;13.322;2023-02-12T06:24:23;5.80;99.90
7204;DHT22;3643;52.460;13.322;2023-02-12T06:26:51;5.80;99.90
7204;DHT22;3643;52.460;13.322;2023-02-12T06:29:20;5.80;99.90
7204;DHT22;3643;52.460;13.322;2023-02-12T06:31:48;5.80;99.90
7204;DHT22;3643;52.460;13.322;2023-02-12T06:34:18;5.80;99.90
7204;DHT22;3643;52.460;13.322;2023-02-12T06:36:47;5.80;99.90
7204;DHT22;3643;52.460;13.322;2023-02-12T06:39:15;5.80;99.90
7204;DHT22;3643;52.460;13.322;2023-02-12T06:41:44;5.80;99.90
7204;DHT22;3643;52.460;13.322;2023-02-12T06:44:12;5.80;99.90
7204;DHT22;3643;52.460;13.322;2023-02-12T06:46:40;5.80;99.90
7204;DHT22;3643;52.460;13.322;2023-02-12T06:49:11;5.80;99.90
7204;DHT22;3643;52.460;13.322;2023-02-12T06:51:41;5.80;99.90
7204;DHT22;3643;52.460;13.322;2023-02-12T06:54:12;5.80;99.90
7204;DHT22;3643;52.460;13.322;2023-02-12T06:56:41;5.80;99.90
7204;DHT22;3643;52.460;13.322;2023-02-12T06:59:12;5.80;99.90
7204;DHT22;3643;52.460;13.322;2023-02-12T07:01:40;5.80;99.90
7204;DHT22;3643;52.460;13.322;2023-02-12T07:04:09;5.80;99.90
7204;DHT22;3643;52.460;13.322;2023-02-12T07:06:37;5.80;99.90
7204;DHT22;3643;52.460;13.322;2023-02-12T07:09:07;5.70;99.90
7204;DHT22;3643;52.460;13.322;2023-02-12T07:11:36;5.90;99.90
7204;DHT22;3643;52.460;13.322;2023-02-12T07:14:05;5.80;99.90
7204;DHT22;3643;52.460;13.322;2023-02-12T07:16:33;5.90;99.90
7204;DHT22;3643;52.460;13.322;2023-02-12T07:19:01;5.90;99.90
7204;DHT22;3643;52.460;13.322;2023-02-12T07:21:29;5.90;99.90
7204;DHT22;3643;52.460;13.322;2023-02-12T07:23:57;5.90;99.90
7204;DHT22;3643;52.460;13.322;2023-02-12T07:26:27;5.90;99.90
7204;DHT22;3643;52.460;13.322;2023-02-12T07:28:56;5.90;99.90
7204;DHT22;3643;52.460;13.322;2023-02-12T07:31:24;5.90;99.90
7204;DHT22;3643;52.460;13.322;2023-02-12T07:33:53;6.00;99.90
7204;DHT22;3643;52.460;13.322;2023-02-12T07:36:23;6.00;99.90
7204;DHT22;3643;52.460;13.322;2023-02-12T07:38:52;6.00;99.90
7204;DHT22;3643;52.460;13.322;2023-02-12T07:41:22;6.00;99.90
7204;DHT22;3643;52.460;13.322;2023-02-12T07:43:54;6.00;99.90
7204;DHT22;3643;52.460;13.322;2023-02-12T07:46:24;6.10;99.90
7204;DHT22;3643;52.460;13.322;2023-02-12T07:48:56;6.10;99.90
7204;DHT22;3643;52.460;13.322;2023-02-12T07:51:25;6.10;99.90
7204;DHT22;3643;52.460;13.322;2023-02-12T07:53:54;6.20;99.90
7204;DHT22;3643;52.460;13.322;2023-02-12T07:56:24;6.10;99.90
7204;DHT22;3643;52.460;13.322;2023-02-12T07:58:57;6.20;99.90
7204;DHT22;3643;52.460;13.322;2023-02-12T08:01:27;6.20;99.90
7204;DHT22;3643;52.460;13.322;2023-02-12T08:03:58;6.30;99.90
7204;DHT22;3643;52.460;13.322;2023-02-12T08:06:28;6.30;99.90
7204;DHT22;3643;52.460;13.322;2023-02-12T08:08:58;6.40;99.90
7204;DHT22;3643;52.460;13.322;2023-02-12T08:11:28;6.40;99.90
7204;DHT22;3643;52.460;13.322;2023-02-12T08:13:59;6.70;99.90
7204;DHT22;3643;52.460;13.322;2023-02-12T08:16:28;6.50;99.90
7204;DHT22;3643;52.460;13.322;2023-02-12T08:18:57;6.50;99.90
7204;DHT22;3643;52.460;13.322;2023-02-12T08:21:42;6.50;99.90
7204;DHT22;3643;52.460;13.322;2023-02-12T08:24:10;6.60;99.90
7204;DHT22;3643;52.460;13.322;2023-02-12T08:26:38;6.60;99.90
7204;DHT22;3643;52.460;13.322;2023-02-12T08:29:11;6.70;99.90
7204;DHT22;3643;52.460;13.322;2023-02-12T08:31:41;6.80;99.90
7204;DHT22;3643;52.460;13.322;2023-02-12T08:34:17;6.80;99.90
7204;DHT22;3643;52.460;13.322;2023-02-12T08:36:47;6.80;99.90
7204;DHT22;3643;52.460;13.322;2023-02-12T08:39:16;6.80;99.90
7204;DHT22;3643;52.460;13.322;2023-02-12T08:41:45;6.80;99.90
7204;DHT22;3643;52.460;13.322;2023-02-12T08:44:14;6.80;99.90
7204;DHT22;3643;52.460;13.322;2023-02-12T08:46:44;6.80;99.90
7204;DHT22;3643;52.460;13.322;2023-02-12T08:49:15;6.80;99.90
7204;DHT22;3643;52.460;13.322;2023-02-12T08:51:46;6.80;99.90
7204;DHT22;3643;52.460;13.322;2023-02-12T08:54:17;6.80;99.90
7204;DHT22;3643;52.460;13.322;2023-02-12T08:56:45;6.80;99.90
7204;DHT22;3643;52.460;13.322;2023-02-12T08:59:16;6.70;99.90
7204;DHT22;3643;52.460;13.322;2023-02-12T09:01:44;6.80;99.90
7204;DHT22;3643;52.460;13.322;2023-02-12T09:04:15;6.80;99.90
7204;DHT22;3643;52.460;13.322;2023-02-12T09:06:44;6.90;99.90
7204;DHT22;3643;52.460;13.322;2023-02-12T09:09:13;7.00;99.90
7204;DHT22;3643;52.460;13.322;2023-02-12T09:11:42;7.00;99.90
7204;DHT22;3643;52.460;13.322;2023-02-12T09:14:12;7.00;99.90
7204;DHT22;3643;52.460;13.322;2023-02-12T09:16:41;7.10;99.90
7204;DHT22;3643;52.460;13.322;2023-02-12T09:19:11;7.00;99.90
7204;DHT22;3643;52.460;13.322;2023-02-12T09:21:40;7.10;99.90
7204;DHT22;3643;52.460;13.322;2023-02-12T09:24:09;7.10;99.90
7204;DHT22;3643;52.460;13.322;2023-02-12T09:26:38;7.20;99.90
7204;DHT22;3643;52.460;13.322;2023-02-12T09:29:06;7.30;99.90
7204;DHT22;3643;52.460;13.322;2023-02-12T09:31:35;7.40;99.90
7204;DHT22;3643;52.460;13.322;2023-02-12T09:34:06;7.50;99.90
7204;DHT22;3643;52.460;13.322;2023-02-12T09:36:34;7.40;99.90
7204;DHT22;3643;52.460;13.322;2023-02-12T09:39:03;7.50;99.90
7204;DHT22;3643;52.460;13.322;2023-02-12T09:41:45;7.50;99.90
7204;DHT22;3643;52.460;13.322;2023-02-12T09:44:22;7.60;99.90
7204;DHT22;3643;52.460;13.322;2023-02-12T09:46:56;7.60;99.90
7204;DHT22;3643;52.460;13.322;2023-02-12T09:49:47;7.60;99.90
7204;DHT22;3643;52.460;13.322;2023-02-12T09:52:21;7.70;99.90
7204;DHT22;3643;52.460;13.322;2023-02-12T09:54:51;7.70;99.90
7204;DHT22;3643;52.460;13.322;2023-02-12T09:57:25;7.70;99.90
7204;DHT22;3643;52.460;13.322;2023-02-12T09:59:57;7.70;99.90
7204;DHT22;3643;52.460;13.322;2023-02-12T10:02:26;7.70;99.90
7204;DHT22;3643;52.460;13.322;2023-02-12T10:04:58;7.70;99.90
7204;DHT22;3643;52.460;13.322;2023-02-12T10:07:44;7.70;99.90
7204;DHT22;3643;52.460;13.322;2023-02-12T10:10:27;7.70;99.90
7204;DHT22;3643;52.460;13.322;2023-02-12T10:13:03;7.80;99.90
7204;DHT22;3643;52.460;13.322;2023-02-12T10:15:37;7.90;99.90
7204;DHT22;3643;52.460;13.322;2023-02-12T10:18:19;8.00;99.90
7204;DHT22;3643;52.460;13.322;2023-02-12T10:21:01;8.00;99.90
7204;DHT22;3643;52.460;13.322;2023-02-12T10:23:54;8.20;99.90
7204;DHT22;3643;52.460;13.322;2023-02-12T10:26:28;8.20;99.90
7204;DHT22;3643;52.460;13.322;2023-02-12T10:28:59;8.20;99.90
7204;DHT22;3643;52.460;13.322;2023-02-12T10:31:35;8.20;99.90
7204;DHT22;3643;52.460;13.322;2023-02-12T10:34:14;8.00;99.90
7204;DHT22;3643;52.460;13.322;2023-02-12T10:36:46;7.90;99.90
7204;DHT22;3643;52.460;13.322;2023-02-12T10:39:20;8.00;99.90
7204;DHT22;3643;52.460;13.322;2023-02-12T10:41:54;8.00;99.90
7204;DHT22;3643;52.460;13.322;2023-02-12T10:44:23;8.00;99.90
7204;DHT22;3643;52.460;13.322;2023-02-12T10:46:51;7.90;99.90
7204;DHT22;3643;52.460;13.322;2023-02-12T10:49:20;7.90;99.90
7204;DHT22;3643;52.460;13.322;2023-02-12T10:52:02;7.80;99.90
7204;DHT22;3643;52.460;13.322;2023-02-12T10:54:40;7.70;99.90
7204;DHT22;3643;52.460;13.322;2023-02-12T10:57:19;7.70;99.90
7204;DHT22;3643;52.460;13.322;2023-02-12T10:59:50;7.90;99.90
7204;DHT22;3643;52.460;13.322;2023-02-12T11:02:25;8.00;99.90
7204;DHT22;3643;52.460;13.322;2023-02-12T11:04:54;8.00;99.90
7204;DHT22;3643;52.460;13.322;2023-02-12T11:07:26;8.00;99.90
7204;DHT22;3643;52.460;13.322;2023-02-12T11:09:55;8.00;99.90
7204;DHT22;3643;52.460;13.322;2023-02-12T11:12:30;8.10;99.90
7204;DHT22;3643;52.460;13.322;2023-02-12T11:15:00;7.70;99.90
7204;DHT22;3643;52.460;13.322;2023-02-12T11:17:33;7.70;99.90
7204;DHT22;3643;52.460;13.322;2023-02-12T11:20:06;7.80;99.90
7204;DHT22;3643;52.460;13.322;2023-02-12T11:22:48;7.70;99.90
7204;DHT22;3643;52.460;13.322;2023-02-12T11:25:17;7.70;99.90
7204;DHT22;3643;52.460;13.322;2023-02-12T11:27:58;7.80;99.90
7204;DHT22;3643;52.460;13.322;2023-02-12T11:30:27;7.80;99.90
7204;DHT22;3643;52.460;13.322;2023-02-12T11:33:14;7.90;99.90
7204;DHT22;3643;52.460;13.322;2023-02-12T11:35:51;7.90;99.90
7204;DHT22;3643;52.460;13.322;2023-02-12T11:38:27;7.90;99.90
7204;DHT22;3643;52.460;13.322;2023-02-12T11:40:59;8.10;99.90
7204;DHT22;3643;52.460;13.322;2023-02-12T11:43:29;7.70;99.90
7204;DHT22;3643;52.460;13.322;2023-02-12T11:45:59;7.60;99.90
7204;DHT22;3643;52.460;13.322;2023-02-12T11:48:30;7.70;99.90
7204;DHT22;3643;52.460;13.322;2023-02-12T11:51:01;7.90;99.90
7204;DHT22;3643;52.460;13.322;2023-02-12T11:53:32;7.90;99.90
7204;DHT22;3643;52.460;13.322;2023-02-12T11:56:04;8.10;99.90
7204;DHT22;3643;52.460;13.322;2023-02-12T11:58:32;8.10;99.90
7204;DHT22;3643;52.460;13.322;2023-02-12T12:01:06;8.30;99.90
7204;DHT22;3643;52.460;13.322;2023-02-12T12:03:41;8.20;99.90
7204;DHT22;3643;52.460;13.322;2023-02-12T12:06:19;8.20;99.90
7204;DHT22;3643;52.460;13.322;2023-02-12T12:08:54;8.10;99.90
7204;DHT22;3643;52.460;13.322;2023-02-12T12:11:27;8.20;99.90
7204;DHT22;3643;52.460;13.322;2023-02-12T12:14:01;8.50;99.90
7204;DHT22;3643;52.460;13.322;2023-02-12T12:16:36;7.70;99.90
7204;DHT22;3643;52.460;13.322;2023-02-12T12:19:25;8.50;99.90
7204;DHT22;3643;52.460;13.322;2023-02-12T12:22:17;8.20;99.90
7204;DHT22;3643;52.460;13.322;2023-02-12T12:24:54;8.30;99.90
7204;DHT22;3643;52.460;13.322;2023-02-12T12:27:32;8.10;99.90
7204;DHT22;3643;52.460;13.322;2023-02-12T12:30:23;8.10;99.90
7204;DHT22;3643;52.460;13.322;2023-02-12T12:32:54;8.00;99.90
7204;DHT22;3643;52.460;13.322;2023-02-12T12:35:36;8.10;99.90
7204;DHT22;3643;52.460;13.322;2023-02-12T12:38:15;8.20;99.90
7204;DHT22;3643;52.460;13.322;2023-02-12T12:40:56;8.30;99.90
7204;DHT22;3643;52.460;13.322;2023-02-12T12:43:38;8.30;99.90
7204;DHT22;3643;52.460;13.322;2023-02-12T12:46:27;8.20;99.90
7204;DHT22;3643;52.460;13.322;2023-02-12T12:49:12;8.10;99.90
7204;DHT22;3643;52.460;13.322;2023-02-12T12:51:57;8.20;99.90
7204;DHT22;3643;52.460;13.322;2023-02-12T12:54:38;8.40;99.90
7204;DHT22;3643;52.460;13.322;2023-02-12T12:57:18;8.40;99.90
7204;DHT22;3643;52.460;13.322;2023-02-12T13:00:05;8.50;99.90
7204;DHT22;3643;52.460;13.322;2023-02-12T13:03:00;8.40;99.90
7204;DHT22;3643;52.460;13.322;2023-02-12T13:05:53;8.50;99.90
7204;DHT22;3643;52.460;13.322;2023-02-12T13:08:48;8.70;99.90
7204;DHT22;3643;52.460;13.322;2023-02-12T13:11:33;8.80;99.90
7204;DHT22;3643;52.460;13.322;2023-02-12T13:14:16;9.00;99.90
7204;DHT22;3643;52.460;13.322;2023-02-12T13:16:51;9.10;99.90
7204;DHT22;3643;52.460;13.322;2023-02-12T13:19:31;9.00;99.90
7204;DHT22;3643;52.460;13.322;2023-02-12T13:22:06;9.00;99.90
7204;DHT22;3643;52.460;13.322;2023-02-12T13:24:41;9.00;99.90
7204;DHT22;3643;52.460;13.322;2023-02-12T13:27:13;9.00;99.90
7204;DHT22;3643;52.460;13.322;2023-02-12T13:29:46;9.00;99.90
7204;DHT22;3643;52.460;13.322;2023-02-12T13:32:22;9.00;99.90
7204;DHT22;3643;52.460;13.322;2023-02-12T13:34:52;9.00;99.90
7204;DHT22;3643;52.460;13.322;2023-02-12T13:37:30;9.10;99.90
7204;DHT22;3643;52.460;13.322;2023-02-12T13:40:03;9.10;99.90
7204;DHT22;3643;52.460;13.322;2023-02-12T13:42:41;9.10;99.90
7204;DHT22;3643;52.460;13.322;2023-02-12T13:45:26;9.00;99.90
7204;DHT22;3643;52.460;13.322;2023-02-12T13:51:06;8.80;99.90
7204;DHT22;3643;52.460;13.322;2023-02-12T13:53:48;8.70;99.90
7204;DHT22;3643;52.460;13.322;2023-02-12T13:56:32;8.70;99.90
7204;DHT22;3643;52.460;13.322;2023-02-12T13:59:01;8.70;99.90
7204;DHT22;3643;52.460;13.322;2023-02-12T14:01:42;8.80;99.90
7204;DHT22;3643;52.460;13.322;2023-02-12T14:04:20;8.90;99.90
7204;DHT22;3643;52.460;13.322;2023-02-12T14:06:53;8.90;99.90
7204;DHT22;3643;52.460;13.322;2023-02-12T14:09:30;8.90;99.90
7204;DHT22;3643;52.460;13.322;2023-02-12T14:12:00;9.00;99.90
7204;DHT22;3643;52.460;13.322;2023-02-12T14:14:31;9.20;99.90
7204;DHT22;3643;52.460;13.322;2023-02-12T14:20:29;9.30;99.90
7204;DHT22;3643;52.460;13.322;2023-02-12T14:25:45;9.40;99.90
7204;DHT22;3643;52.460;13.322;2023-02-12T14:28:26;9.20;99.90
7204;DHT22;3643;52.460;13.322;2023-02-12T14:31:30;9.20;99.90
7204;DHT22;3643;52.460;13.322;2023-02-12T14:34:37;9.20;99.90
7204;DHT22;3643;52.460;13.322;2023-02-12T14:37:17;9.20;99.90
7204;DHT22;3643;52.460;13.322;2023-02-12T14:43:02;9.40;99.90
7204;DHT22;3643;52.460;13.322;2023-02-12T14:45:33;9.50;99.90
7204;DHT22;3643;52.460;13.322;2023-02-12T14:48:03;9.40;99.90
7204;DHT22;3643;52.460;13.322;2023-02-12T14:50:38;9.50;99.90
7204;DHT22;3643;52.460;13.322;2023-02-12T14:53:21;9.40;99.90
7204;DHT22;3643;52.460;13.322;2023-02-12T14:55:52;9.50;99.90
7204;DHT22;3643;52.460;13.322;2023-02-12T14:58:23;9.40;99.90
7204;DHT22;3643;52.460;13.322;2023-02-12T15:00:54;9.30;99.90
7204;DHT22;3643;52.460;13.322;2023-02-12T15:03:28;9.30;99.90
7204;DHT22;3643;52.460;13.322;2023-02-12T15:06:03;9.30;99.90
7204;DHT22;3643;52.460;13.322;2023-02-12T15:08:42;9.30;99.90
7204;DHT22;3643;52.460;13.322;2023-02-12T15:11:20;9.10;99.90
7204;DHT22;3643;52.460;13.322;2023-02-12T15:13:54;9.00;99.90
7204;DHT22;3643;52.460;13.322;2023-02-12T15:16:31;8.90;99.90
7204;DHT22;3643;52.460;13.322;2023-02-12T15:19:04;8.90;99.90
7204;DHT22;3643;52.460;13.322;2023-02-12T15:21:35;8.90;99.90
7204;DHT22;3643;52.460;13.322;2023-02-12T15:24:07;8.90;99.90
7204;DHT22;3643;52.460;13.322;2023-02-12T15:26:39;8.90;99.90
7204;DHT22;3643;52.460;13.322;2023-02-12T15:29:18;8.90;99.90
7204;DHT22;3643;52.460;13.322;2023-02-12T15:31:50;8.90;99.90
7204;DHT22;3643;52.460;13.322;2023-02-12T15:34:22;8.60;99.90
7204;DHT22;3643;52.460;13.322;2023-02-12T15:36:51;8.80;99.90
7204;DHT22;3643;52.460;13.322;2023-02-12T15:39:23;8.80;99.90
7204;DHT22;3643;52.460;13.322;2023-02-12T15:41:51;8.70;99.90
7204;DHT22;3643;52.460;13.322;2023-02-12T15:44:25;8.70;99.90
7204;DHT22;3643;52.460;13.322;2023-02-12T15:46:58;8.70;99.90
7204;DHT22;3643;52.460;13.322;2023-02-12T15:49:33;8.70;99.90
7204;DHT22;3643;52.460;13.322;2023-02-12T15:52:04;8.60;99.90
7204;DHT22;3643;52.460;13.322;2023-02-12T15:54:37;8.60;99.90
7204;DHT22;3643;52.460;13.322;2023-02-12T15:57:10;8.50;99.90
7204;DHT22;3643;52.460;13.322;2023-02-12T15:59:40;8.50;99.90
7204;DHT22;3643;52.460;13.322;2023-02-12T16:02:19;8.50;99.90
7204;DHT22;3643;52.460;13.322;2023-02-12T16:04:48;8.50;99.90
7204;DHT22;3643;52.460;13.322;2023-02-12T16:07:17;8.40;99.90
7204;DHT22;3643;52.460;13.322;2023-02-12T16:09:50;8.30;99.90
7204;DHT22;3643;52.460;13.322;2023-02-12T16:12:21;8.30;99.90
7204;DHT22;3643;52.460;13.322;2023-02-12T16:14:52;8.30;99.90
7204;DHT22;3643;52.460;13.322;2023-02-12T16:17:26;8.30;99.90
7204;DHT22;3643;52.460;13.322;2023-02-12T16:19:56;8.30;99.90
7204;DHT22;3643;52.460;13.322;2023-02-12T16:22:31;8.20;99.90
7204;DHT22;3643;52.460;13.322;2023-02-12T16:25:12;8.20;99.90
7204;DHT22;3643;52.460;13.322;2023-02-12T16:27:52;8.20;99.90
7204;DHT22;3643;52.460;13.322;2023-02-12T16:30:26;8.10;99.90
7204;DHT22;3643;52.460;13.322;2023-02-12T16:32:56;8.10;99.90
7204;DHT22;3643;52.460;13.322;2023-02-12T16:35:30;8.10;99.90
7204;DHT22;3643;52.460;13.322;2023-02-12T16:38:03;8.10;99.90
7204;DHT22;3643;52.460;13.322;2023-02-12T16:41:22;8.00;99.90
7204;DHT22;3643;52.460;13.322;2023-02-12T16:44:19;8.00;99.90
7204;DHT22;3643;52.460;13.322;2023-02-12T16:46:50;8.00;99.90
7204;DHT22;3643;52.460;13.322;2023-02-12T16:49:21;8.00;99.90
7204;DHT22;3643;52.460;13.322;2023-02-12T16:51:51;8.00;99.90
7204;DHT22;3643;52.460;13.322;2023-02-12T16:54:30;7.90;99.90